Time;durP1;ratioP1;P1;durP2;ratioP2;P2;SDS_P1;SDS_P2;PMS_P1;PMS_P2;Temp;Humidity;BMP_temperature;BMP_pressure;BME280_temperature;BME280_humidity;BME280_pressure;Samples;Min_cycle;Max_cycle;Signal;HPM_P1;HPM_P2
2022/07/01 00:02:25;;;;;;;4.68;1.75;;;;;;;;;;5025927;28;20055;-70
2022/07/01 00:04:51;;;;;;;8.45;1.95;;;;;;;;;;5028276;28;20453;-74
2022/07/01 00:07:17;;;;;;;8.10;2.22;;;;;;;;;;5023005;28;20038;-70
2022/07/01 00:09:43;;;;;;;6.57;2.13;;;;;;;;;;5024413;28;20102;-71
2022/07/01 00:12:09;;;;;;;9.93;2.30;;;;;;;;;;5026868;28;20049;-70
2022/07/01 00:14:35;;;;;;;12.85;2.70;;;;;;;;;;5030471;28;20037;-72
2022/07/01 00:17:01;;;;;;;11.13;3.63;;;;;;;;;;5031766;28;20482;-69
2022/07/01 00:19:28;;;;;;;10.50;2.88;;;;;;;;;;5017999;28;20052;-69
2022/07/01 00:21:53;;;;;;;7.60;2.70;;;;;;;;;;5024650;28;20510;-69
2022/07/01 00:24:19;;;;;;;10.02;3.15;;;;;;;;;;5023729;28;20045;-70
2022/07/01 00:26:45;;;;;;;9.45;2.90;;;;;;;;;;5032572;28;20053;-70
2022/07/01 00:29:11;;;;;;;7.68;3.20;;;;;;;;;;5027767;28;20053;-70
2022/07/01 00:31:37;;;;;;;9.82;3.50;;;;;;;;;;5026658;28;20041;-71
2022/07/01 00:34:03;;;;;;;12.93;3.22;;;;;;;;;;5023551;28;20119;-70
2022/07/01 00:36:29;;;;;;;9.57;3.50;;;;;;;;;;5026653;28;20558;-69
2022/07/01 00:38:55;;;;;;;12.30;3.70;;;;;;;;;;5026497;28;20041;-68
2022/07/01 00:41:22;;;;;;;12.45;3.97;;;;;;;;;;5024429;28;20103;-72
2022/07/01 00:43:47;;;;;;;12.05;4.10;;;;;;;;;;5027624;28;20072;-69
2022/07/01 00:46:13;;;;;;;11.13;4.97;;;;;;;;;;5023049;28;20080;-70
2022/07/01 00:48:39;;;;;;;12.40;5.20;;;;;;;;;;5027569;28;20048;-69
2022/07/01 00:51:06;;;;;;;14.10;4.68;;;;;;;;;;5027774;28;20113;-70
2022/07/01 00:53:32;;;;;;;13.05;4.55;;;;;;;;;;5026723;28;20053;-71
2022/07/01 00:55:59;;;;;;;10.88;4.40;;;;;;;;;;5028163;28;20045;-70
2022/07/01 00:58:29;;;;;;;9.32;4.10;;;;;;;;;;5026104;28;20053;-72
2022/07/01 01:00:56;;;;;;;8.05;3.53;;;;;;;;;;5022918;28;20115;-72
2022/07/01 01:03:22;;;;;;;10.30;3.70;;;;;;;;;;5031727;28;20053;-72
2022/07/01 01:05:49;;;;;;;7.97;3.83;;;;;;;;;;5032541;28;20048;-70
2022/07/01 01:08:15;;;;;;;10.63;3.85;;;;;;;;;;5032499;28;20095;-71
2022/07/01 01:10:42;;;;;;;15.30;3.67;;;;;;;;;;5034199;28;20453;-70
2022/07/01 01:13:09;;;;;;;9.82;3.97;;;;;;;;;;5031606;28;20568;-71
2022/07/01 01:15:35;;;;;;;10.50;3.65;;;;;;;;;;5032241;28;20073;-70
2022/07/01 01:18:02;;;;;;;8.95;3.60;;;;;;;;;;5031664;28;20356;-71
2022/07/01 01:20:33;;;;;;;14.38;4.20;;;;;;;;;;5030795;28;20486;-70
2022/07/01 01:22:59;;;;;;;13.18;3.80;;;;;;;;;;5030379;28;20493;-71
2022/07/01 01:25:24;;;;;;;9.30;3.38;;;;;;;;;;5029514;28;20060;-70
2022/07/01 01:27:50;;;;;;;18.15;3.97;;;;;;;;;;5029324;28;20041;-70
2022/07/01 01:30:16;;;;;;;9.48;3.30;;;;;;;;;;5030337;28;20123;-71
2022/07/01 01:32:42;;;;;;;12.77;4.03;;;;;;;;;;5028817;28;20050;-69
2022/07/01 01:35:09;;;;;;;9.68;3.40;;;;;;;;;;5025206;28;20517;-70
2022/07/01 01:37:35;;;;;;;11.57;3.88;;;;;;;;;;5030315;28;20507;-71
2022/07/01 01:40:03;;;;;;;12.10;3.47;;;;;;;;;;5027414;28;20045;-69
2022/07/01 01:42:28;;;;;;;11.15;3.97;;;;;;;;;;5022143;28;20471;-72
2022/07/01 01:44:54;;;;;;;21.63;4.55;;;;;;;;;;5030496;28;20508;-69
2022/07/01 01:47:20;;;;;;;8.07;4.40;;;;;;;;;;5028887;28;20621;-70
2022/07/01 01:49:47;;;;;;;13.88;5.25;;;;;;;;;;5028928;28;20293;-71
2022/07/01 01:52:12;;;;;;;14.98;4.63;;;;;;;;;;5028058;28;20053;-70
2022/07/01 01:54:38;;;;;;;11.55;4.90;;;;;;;;;;5029824;28;20110;-70
2022/07/01 01:57:04;;;;;;;12.60;4.90;;;;;;;;;;5028290;28;20044;-69
2022/07/01 01:59:30;;;;;;;16.70;5.55;;;;;;;;;;5027663;28;20053;-71
2022/07/01 02:01:57;;;;;;;12.35;5.07;;;;;;;;;;5028818;28;20380;-69
2022/07/01 02:04:23;;;;;;;16.77;5.70;;;;;;;;;;5030091;28;20048;-71
2022/07/01 02:06:50;;;;;;;12.60;5.50;;;;;;;;;;5028043;28;20041;-68
2022/07/01 02:09:16;;;;;;;18.55;5.55;;;;;;;;;;5036997;28;20513;-69
2022/07/01 02:11:42;;;;;;;13.80;5.53;;;;;;;;;;5027618;28;20073;-70
2022/07/01 02:14:08;;;;;;;14.75;5.30;;;;;;;;;;5029382;28;20073;-70
2022/07/01 02:16:34;;;;;;;13.35;5.60;;;;;;;;;;5029019;28;20045;-70
2022/07/01 02:19:00;;;;;;;12.48;5.03;;;;;;;;;;5030392;28;20085;-70
2022/07/01 02:21:26;;;;;;;16.13;5.88;;;;;;;;;;5030694;28;20075;-70
2022/07/01 02:23:52;;;;;;;12.98;4.78;;;;;;;;;;5030338;28;20041;-71
2022/07/01 02:26:18;;;;;;;18.95;5.60;;;;;;;;;;5033235;28;20105;-68
2022/07/01 02:28:44;;;;;;;11.23;5.47;;;;;;;;;;5030169;28;20045;-70
2022/07/01 02:31:10;;;;;;;15.48;5.88;;;;;;;;;;5029675;28;20462;-69
2022/07/01 02:33:36;;;;;;;15.05;5.53;;;;;;;;;;5028242;28;20061;-68
2022/07/01 02:36:02;;;;;;;14.38;5.57;;;;;;;;;;5029589;28;20045;-69
2022/07/01 02:38:28;;;;;;;12.23;6.15;;;;;;;;;;5029367;28;20511;-69
2022/07/01 02:40:54;;;;;;;13.02;6.22;;;;;;;;;;5031012;28;20045;-69
2022/07/01 02:43:19;;;;;;;13.35;5.90;;;;;;;;;;5028005;28;20045;-68
2022/07/01 02:45:45;;;;;;;16.58;6.38;;;;;;;;;;5026333;28;20064;-71
2022/07/01 02:48:11;;;;;;;17.67;6.40;;;;;;;;;;5030301;28;20037;-70
2022/07/01 02:50:37;;;;;;;16.58;6.00;;;;;;;;;;5029786;28;20794;-68
2022/07/01 02:53:03;;;;;;;18.42;6.70;;;;;;;;;;5028193;28;20045;-67
2022/07/01 02:55:29;;;;;;;18.60;6.25;;;;;;;;;;5024924;28;20280;-69
2022/07/01 02:57:55;;;;;;;14.18;7.00;;;;;;;;;;5027915;28;20077;-69
2022/07/01 03:00:22;;;;;;;17.80;7.13;;;;;;;;;;5028099;28;20890;-68
2022/07/01 03:02:48;;;;;;;19.20;7.38;;;;;;;;;;5024578;28;20046;-68
2022/07/01 03:05:14;;;;;;;21.63;7.38;;;;;;;;;;5028226;28;20068;-68
2022/07/01 03:07:40;;;;;;;13.35;6.80;;;;;;;;;;5026860;28;20136;-70
2022/07/01 03:10:07;;;;;;;18.92;7.30;;;;;;;;;;5028817;28;20105;-71
2022/07/01 03:12:38;;;;;;;18.02;6.82;;;;;;;;;;5028320;28;20080;-69
2022/07/01 03:15:09;;;;;;;13.82;6.40;;;;;;;;;;5030097;28;20077;-68
2022/07/01 03:17:38;;;;;;;13.57;6.85;;;;;;;;;;5025589;28;20045;-68
2022/07/01 03:20:08;;;;;;;20.73;6.97;;;;;;;;;;5029897;28;20042;-68
2022/07/01 03:22:35;;;;;;;17.23;6.93;;;;;;;;;;5028541;28;20133;-68
2022/07/01 03:25:03;;;;;;;14.57;7.38;;;;;;;;;;5027862;28;20561;-69
2022/07/01 03:27:28;;;;;;;17.50;7.32;;;;;;;;;;5031362;28;20057;-70
2022/07/01 03:29:54;;;;;;;18.00;7.07;;;;;;;;;;5028156;28;20049;-70
2022/07/01 03:32:20;;;;;;;14.77;7.03;;;;;;;;;;5026467;28;20171;-67
2022/07/01 03:34:48;;;;;;;16.58;6.55;;;;;;;;;;5026359;28;20041;-69
2022/07/01 03:37:15;;;;;;;14.63;6.75;;;;;;;;;;5028199;28;20045;-69
2022/07/01 03:39:41;;;;;;;20.08;6.65;;;;;;;;;;5028524;28;20439;-67
2022/07/01 03:42:09;;;;;;;18.77;7.15;;;;;;;;;;5026622;28;20048;-68
2022/07/01 03:44:36;;;;;;;18.27;7.10;;;;;;;;;;5028338;28;20041;-69
2022/07/01 03:47:03;;;;;;;17.52;6.47;;;;;;;;;;5027104;28;20050;-70
2022/07/01 03:49:29;;;;;;;9.38;5.53;;;;;;;;;;5027594;28;20743;-69
2022/07/01 03:51:55;;;;;;;12.95;6.03;;;;;;;;;;5027073;28;20046;-69
2022/07/01 03:54:30;;;;;;;13.88;6.07;;;;;;;;;;5029047;28;20045;-70
2022/07/01 03:57:04;;;;;;;13.85;5.82;;;;;;;;;;5051545;28;20050;-73
2022/07/01 03:59:31;;;;;;;;;;;;;;;;;;5031518;28;20084;-68
2022/07/01 04:01:58;;;;;;;14.65;5.53;;;;;;;;;;5028395;28;20248;-68
2022/07/01 04:04:26;;;;;;;13.40;5.25;;;;;;;;;;5028426;28;20050;-69
2022/07/01 04:06:53;;;;;;;15.65;6.15;;;;;;;;;;5026519;28;20057;-68
2022/07/01 04:09:20;;;;;;;12.00;5.65;;;;;;;;;;5027447;28;20425;-68
2022/07/01 04:11:48;;;;;;;10.43;4.90;;;;;;;;;;5022639;28;20080;-65
2022/07/01 04:14:14;;;;;;;10.85;5.30;;;;;;;;;;5023726;28;20451;-63
2022/07/01 04:16:41;;;;;;;16.33;5.45;;;;;;;;;;5025850;28;20049;-64
2022/07/01 04:19:08;;;;;;;18.92;5.35;;;;;;;;;;5027668;28;20045;-64
2022/07/01 04:24:19;;;;;;;12.98;4.60;;;;;;;;;;5027032;28;20116;-63
2022/07/01 04:26:45;;;;;;;12.23;4.68;;;;;;;;;;5026127;28;20153;-66
2022/07/01 04:29:11;;;;;;;20.92;5.10;;;;;;;;;;5022699;28;20682;-64
2022/07/01 04:31:37;;;;;;;10.45;4.28;;;;;;;;;;5027545;28;20180;-65
2022/07/01 04:34:05;;;;;;;13.15;4.35;;;;;;;;;;5020792;28;20519;-69
2022/07/01 04:36:30;;;;;;;9.85;4.13;;;;;;;;;;5024432;28;20092;-64
2022/07/01 04:38:57;;;;;;;13.65;4.05;;;;;;;;;;5028381;28;20049;-65
2022/07/01 04:44:08;;;;;;;7.93;3.17;;;;;;;;;;5022956;28;20103;-67
2022/07/01 04:46:34;;;;;;;10.93;3.22;;;;;;;;;;5023546;28;20546;-65
2022/07/01 04:49:00;;;;;;;13.52;3.35;;;;;;;;;;5025791;28;20149;-64
2022/07/01 04:51:26;;;;;;;12.00;3.10;;;;;;;;;;5022439;28;20121;-64
2022/07/01 04:53:52;;;;;;;10.63;3.15;;;;;;;;;;5024139;28;20065;-66
2022/07/01 04:56:18;;;;;;;8.73;2.67;;;;;;;;;;5025940;28;20037;-66
2022/07/01 04:58:44;;;;;;;12.40;2.60;;;;;;;;;;5024056;28;20057;-64
2022/07/01 05:01:10;;;;;;;6.70;2.65;;;;;;;;;;5022883;28;20052;-64
2022/07/01 05:03:36;;;;;;;10.30;2.47;;;;;;;;;;5022490;28;20049;-65
2022/07/01 05:06:02;;;;;;;9.95;2.78;;;;;;;;;;5024701;28;20060;-66
2022/07/01 05:08:28;;;;;;;9.15;2.28;;;;;;;;;;5026041;28;20426;-66
2022/07/01 05:10:54;;;;;;;11.25;2.60;;;;;;;;;;5023568;28;20057;-65
2022/07/01 05:13:20;;;;;;;10.35;2.38;;;;;;;;;;5023242;28;20057;-65
2022/07/01 05:15:46;;;;;;;9.93;2.63;;;;;;;;;;5023226;28;20659;-64
2022/07/01 05:23:41;;;;;;;13.80;3.40;;;;;;;;;;5024624;28;20431;-65
2022/07/01 05:26:07;;;;;;;15.57;3.30;;;;;;;;;;5028141;28;20060;-64
2022/07/01 05:28:33;;;;;;;12.75;3.10;;;;;;;;;;5025449;28;20061;-65
2022/07/01 05:30:59;;;;;;;9.07;2.75;;;;;;;;;;5023718;28;20083;-64
2022/07/01 05:33:26;;;;;;;10.93;2.72;;;;;;;;;;5015680;28;20049;-64
2022/07/01 05:35:55;;;;;;;11.35;2.78;;;;;;;;;;5022216;28;20045;-66
2022/07/01 05:38:21;;;;;;;11.93;3.33;;;;;;;;;;5020539;28;20085;-67
2022/07/01 05:40:47;;;;;;;17.05;3.28;;;;;;;;;;5023350;28;20045;-65
2022/07/01 05:43:13;;;;;;;11.63;3.33;;;;;;;;;;5020152;28;20411;-64
2022/07/01 05:45:38;;;;;;;10.55;3.30;;;;;;;;;;5024761;28;20053;-63
2022/07/01 05:48:05;;;;;;;6.43;3.22;;;;;;;;;;5022334;28;20152;-62
2022/07/01 05:50:30;;;;;;;12.00;2.80;;;;;;;;;;5020837;28;20168;-62
2022/07/01 05:52:56;;;;;;;12.68;3.10;;;;;;;;;;5019013;28;20053;-67
2022/07/01 05:55:22;;;;;;;9.27;2.92;;;;;;;;;;5022723;28;20053;-62
2022/07/01 05:57:48;;;;;;;10.85;2.83;;;;;;;;;;5023484;28;20053;-64
2022/07/01 06:00:14;;;;;;;7.32;3.00;;;;;;;;;;5026822;28;20122;-64
2022/07/01 06:02:40;;;;;;;9.82;3.22;;;;;;;;;;5032095;28;20045;-63
2022/07/01 06:05:06;;;;;;;8.32;2.63;;;;;;;;;;5029768;28;20041;-63
2022/07/01 06:07:32;;;;;;;14.65;3.58;;;;;;;;;;5022707;28;20517;-65
2022/07/01 06:09:58;;;;;;;9.15;2.78;;;;;;;;;;5030911;28;20495;-61
2022/07/01 06:12:24;;;;;;;12.15;3.10;;;;;;;;;;5029347;28;20053;-63
2022/07/01 06:14:50;;;;;;;8.35;2.72;;;;;;;;;;5030401;28;20043;-62
2022/07/01 06:17:17;;;;;;;6.55;2.60;;;;;;;;;;5023737;28;20084;-63
2022/07/01 06:19:43;;;;;;;10.15;2.95;;;;;;;;;;5027680;28;20306;-63
2022/07/01 06:22:09;;;;;;;8.82;2.53;;;;;;;;;;5027857;28;20046;-63
2022/07/01 06:24:35;;;;;;;10.95;3.00;;;;;;;;;;5029778;28;20064;-63
2022/07/01 06:27:01;;;;;;;8.20;2.40;;;;;;;;;;5027454;28;20037;-64
2022/07/01 06:29:29;;;;;;;8.25;2.30;;;;;;;;;;5029844;28;20045;-63
2022/07/01 06:31:55;;;;;;;9.40;3.10;;;;;;;;;;5025387;28;20041;-63
2022/07/01 06:34:21;;;;;;;10.23;2.53;;;;;;;;;;5027713;28;20041;-64
2022/07/01 06:36:46;;;;;;;8.00;2.00;;;;;;;;;;5028199;28;20136;-64
2022/07/01 06:39:12;;;;;;;9.15;2.47;;;;;;;;;;5026339;28;20050;-69
2022/07/01 06:41:38;;;;;;;9.88;2.83;;;;;;;;;;5026893;28;20087;-62
2022/07/01 06:44:07;;;;;;;8.57;2.60;;;;;;;;;;5027367;28;20033;-65
2022/07/01 06:46:33;;;;;;;8.15;2.53;;;;;;;;;;5030377;28;20053;-64
2022/07/01 06:48:59;;;;;;;12.45;2.80;;;;;;;;;;5029571;28;20069;-69
2022/07/01 06:51:26;;;;;;;12.45;3.35;;;;;;;;;;5030644;28;20045;-62
2022/07/01 06:53:52;;;;;;;7.80;2.60;;;;;;;;;;5028515;28;20057;-66
2022/07/01 06:56:18;;;;;;;7.28;2.65;;;;;;;;;;5025280;28;20128;-64
2022/07/01 06:58:44;;;;;;;10.65;3.20;;;;;;;;;;5028502;28;20199;-63
2022/07/01 07:01:11;;;;;;;8.27;2.97;;;;;;;;;;5027093;28;20672;-62
2022/07/01 07:03:36;;;;;;;9.43;2.58;;;;;;;;;;5028355;28;20411;-64
2022/07/01 07:06:03;;;;;;;8.85;3.00;;;;;;;;;;5026567;28;20060;-66
2022/07/01 07:08:30;;;;;;;14.77;3.25;;;;;;;;;;5026567;28;20049;-65
2022/07/01 07:10:56;;;;;;;7.53;2.40;;;;;;;;;;5027462;28;20045;-64
2022/07/01 07:13:23;;;;;;;8.35;2.10;;;;;;;;;;5048541;28;20077;-65
2022/07/01 07:15:49;;;;;;;5.22;1.77;;;;;;;;;;5036085;28;20049;-65
2022/07/01 07:18:15;;;;;;;6.30;2.08;;;;;;;;;;5026146;28;20132;-65
2022/07/01 07:20:41;;;;;;;5.72;2.00;;;;;;;;;;5028976;28;20044;-66
2022/07/01 07:23:07;;;;;;;8.77;1.50;;;;;;;;;;5030120;28;20379;-66
2022/07/01 07:25:33;;;;;;;5.75;1.77;;;;;;;;;;5030706;28;20077;-66
2022/07/01 07:27:59;;;;;;;7.15;1.90;;;;;;;;;;5024808;28;20049;-65
2022/07/01 07:30:25;;;;;;;7.88;1.80;;;;;;;;;;5029378;28;20041;-66
2022/07/01 07:32:51;;;;;;;9.73;1.73;;;;;;;;;;5028093;28;20038;-67
2022/07/01 07:35:17;;;;;;;4.95;1.75;;;;;;;;;;5029114;28;20057;-66
2022/07/01 07:37:44;;;;;;;6.28;1.60;;;;;;;;;;5028860;28;20515;-68
2022/07/01 07:40:12;;;;;;;6.68;1.65;;;;;;;;;;5024874;28;20045;-69
2022/07/01 07:42:39;;;;;;;5.75;1.35;;;;;;;;;;5025907;28;20037;-68
2022/07/01 07:45:06;;;;;;;6.38;1.40;;;;;;;;;;5028061;28;20052;-65
2022/07/01 07:47:35;;;;;;;5.20;1.30;;;;;;;;;;5027241;28;20041;-65
2022/07/01 07:50:02;;;;;;;6.40;1.35;;;;;;;;;;5016466;28;20041;-68
2022/07/01 07:52:29;;;;;;;3.47;1.30;;;;;;;;;;5028212;28;20069;-67
2022/07/01 07:54:54;;;;;;;8.40;1.60;;;;;;;;;;5024606;28;20829;-67
2022/07/01 07:57:20;;;;;;;10.27;1.45;;;;;;;;;;5027832;28;20136;-66
2022/07/01 07:59:47;;;;;;;5.20;1.45;;;;;;;;;;5028763;28;20507;-67
2022/07/01 08:02:13;;;;;;;5.78;1.65;;;;;;;;;;5026533;28;20115;-66
2022/07/01 08:04:39;;;;;;;6.25;1.30;;;;;;;;;;5023104;28;20045;-69
2022/07/01 08:07:05;;;;;;;4.28;1.13;;;;;;;;;;5026588;28;20124;-70
2022/07/01 08:09:34;;;;;;;3.70;1.20;;;;;;;;;;5027696;28;20136;-69
2022/07/01 08:12:02;;;;;;;6.22;1.30;;;;;;;;;;5020945;28;20064;-66
2022/07/01 08:14:28;;;;;;;4.90;1.88;;;;;;;;;;5025405;28;20529;-68
2022/07/01 08:16:54;;;;;;;6.30;2.10;;;;;;;;;;5023190;28;20053;-66
2022/07/01 08:19:20;;;;;;;9.35;3.17;;;;;;;;;;5029556;28;20045;-67
2022/07/01 08:21:46;;;;;;;11.25;2.78;;;;;;;;;;5029598;28;20059;-66
2022/07/01 08:24:12;;;;;;;7.25;2.10;;;;;;;;;;5023277;28;20506;-62
2022/07/01 08:26:38;;;;;;;7.03;1.83;;;;;;;;;;5026283;28;20048;-63
2022/07/01 08:29:04;;;;;;;3.60;1.42;;;;;;;;;;5027496;28;20514;-65
2022/07/01 08:31:31;;;;;;;5.80;1.13;;;;;;;;;;5027899;28;20132;-69
2022/07/01 08:33:57;;;;;;;3.00;1.10;;;;;;;;;;5022370;28;20400;-65
2022/07/01 08:36:23;;;;;;;5.95;2.13;;;;;;;;;;5030100;28;20053;-66
2022/07/01 08:38:50;;;;;;;7.35;1.45;;;;;;;;;;5029018;28;20073;-65
2022/07/01 08:41:18;;;;;;;6.50;1.90;;;;;;;;;;5029873;28;20487;-64
2022/07/01 08:43:45;;;;;;;11.18;3.75;;;;;;;;;;5028968;28;20124;-66
2022/07/01 08:46:11;;;;;;;10.55;1.88;;;;;;;;;;5026403;28;20187;-66
2022/07/01 08:48:37;;;;;;;10.23;2.47;;;;;;;;;;5021981;28;20106;-67
2022/07/01 08:51:04;;;;;;;6.10;1.40;;;;;;;;;;5028513;28;20091;-66
2022/07/01 08:53:33;;;;;;;4.30;1.30;;;;;;;;;;5028431;28;20060;-65
2022/07/01 08:58:45;;;;;;;5.20;1.50;;;;;;;;;;5027182;28;20478;-67
2022/07/01 09:01:20;;;;;;;11.20;1.50;;;;;;;;;;5026720;28;20405;-66
2022/07/01 09:03:47;;;;;;;3.72;1.10;;;;;;;;;;5026556;28;20053;-66
2022/07/01 09:06:18;;;;;;;6.28;1.10;;;;;;;;;;5027756;28;20495;-66
2022/07/01 09:08:45;;;;;;;8.20;1.40;;;;;;;;;;5028471;28;20045;-67
2022/07/01 09:11:12;;;;;;;4.63;1.20;;;;;;;;;;5026293;28;20521;-67
2022/07/01 09:13:40;;;;;;;6.47;1.25;;;;;;;;;;5024989;28;20106;-65
2022/07/01 09:16:16;;;;;;;5.38;1.25;;;;;;;;;;5028410;28;20034;-66
2022/07/01 09:19:03;;;;;;;6.32;1.10;;;;;;;;;;5029430;28;20050;-66
2022/07/01 09:21:30;;;;;;;3.50;1.00;;;;;;;;;;5028696;28;20049;-66
2022/07/01 09:24:17;;;;;;;5.28;1.10;;;;;;;;;;5029818;28;20041;-66
2022/07/01 09:27:13;;;;;;;4.53;1.23;;;;;;;;;;5028286;28;20051;-66
2022/07/01 09:29:43;;;;;;;4.18;1.20;;;;;;;;;;5026861;28;20048;-67
2022/07/01 09:32:11;;;;;;;4.72;1.10;;;;;;;;;;5025135;28;20045;-66
2022/07/01 09:34:42;;;;;;;5.13;1.10;;;;;;;;;;5020133;28;20284;-66
2022/07/01 09:37:10;;;;;;;1.90;1.08;;;;;;;;;;5027034;28;20107;-67
2022/07/01 09:39:46;;;;;;;5.70;1.10;;;;;;;;;;5026515;28;20115;-67
2022/07/01 09:42:14;;;;;;;10.98;1.70;;;;;;;;;;5025512;28;20068;-65
2022/07/01 09:44:59;;;;;;;3.03;0.93;;;;;;;;;;5027363;28;20041;-69
2022/07/01 09:47:27;;;;;;;5.88;1.40;;;;;;;;;;5023372;28;20456;-67
2022/07/01 09:49:54;;;;;;;5.57;1.10;;;;;;;;;;5027400;28;20056;-67
2022/07/01 09:52:22;;;;;;;4.28;1.40;;;;;;;;;;5028153;28;20407;-66
2022/07/01 09:54:49;;;;;;;7.53;1.30;;;;;;;;;;5023698;28;20483;-66
2022/07/01 09:57:19;;;;;;;5.50;1.52;;;;;;;;;;5024405;28;20061;-67
2022/07/01 09:59:45;;;;;;;3.80;1.17;;;;;;;;;;5028501;28;20066;-65
2022/07/01 10:02:12;;;;;;;4.72;1.20;;;;;;;;;;5026474;28;20057;-66
2022/07/01 10:04:42;;;;;;;5.20;1.20;;;;;;;;;;5026069;28;20128;-67
2022/07/01 10:07:36;;;;;;;6.43;1.33;;;;;;;;;;5026646;28;20053;-66
2022/07/01 10:10:17;;;;;;;3.78;1.20;;;;;;;;;;5025189;28;20045;-66
2022/07/01 10:12:49;;;;;;;8.25;1.60;;;;;;;;;;5022890;28;20516;-65
2022/07/01 10:15:18;;;;;;;16.30;3.83;;;;;;;;;;5027521;28;20075;-67
2022/07/01 10:17:47;;;;;;;12.15;2.65;;;;;;;;;;5025078;28;20694;-67
2022/07/01 10:20:15;;;;;;;6.70;2.05;;;;;;;;;;5025259;28;20526;-64
2022/07/01 10:22:42;;;;;;;7.25;1.67;;;;;;;;;;5025828;28;20112;-70
2022/07/01 10:25:39;;;;;;;6.43;1.08;;;;;;;;;;5019372;28;20254;-67
2022/07/01 10:28:25;;;;;;;8.73;1.42;;;;;;;;;;5029023;28;20046;-66
2022/07/01 10:31:11;;;;;;;7.05;1.30;;;;;;;;;;5025985;28;20046;-67
2022/07/01 10:33:58;;;;;;;5.30;1.40;;;;;;;;;;5025945;28;20041;-69
2022/07/01 10:36:31;;;;;;;3.30;1.30;;;;;;;;;;5026982;28;20064;-69
2022/07/01 10:39:00;;;;;;;7.13;1.30;;;;;;;;;;5027199;28;20045;-66
2022/07/01 10:41:27;;;;;;;4.47;1.27;;;;;;;;;;5028418;28;20429;-67
2022/07/01 10:43:55;;;;;;;6.82;1.45;;;;;;;;;;5025405;28;20045;-67
2022/07/01 10:46:46;;;;;;;9.20;1.52;;;;;;;;;;5027120;28;20521;-67
2022/07/01 10:49:17;;;;;;;7.40;1.23;;;;;;;;;;5027402;28;20049;-67
2022/07/01 10:51:54;;;;;;;8.73;1.40;;;;;;;;;;5027047;28;20060;-67
2022/07/01 10:54:43;;;;;;;5.85;1.00;;;;;;;;;;5029400;28;20049;-66
2022/07/01 10:57:24;;;;;;;9.70;1.60;;;;;;;;;;5026962;28;20406;-67
2022/07/01 10:59:53;;;;;;;7.55;1.50;;;;;;;;;;5026101;28;20049;-69
2022/07/01 11:02:20;;;;;;;28.88;2.55;;;;;;;;;;5026295;28;20454;-66
2022/07/01 11:04:47;;;;;;;6.47;1.58;;;;;;;;;;5026049;28;20033;-67
2022/07/01 11:07:13;;;;;;;9.05;1.48;;;;;;;;;;5028044;28;20726;-69
2022/07/01 11:09:40;;;;;;;6.25;1.38;;;;;;;;;;5057668;28;20091;-72
2022/07/01 11:12:07;;;;;;;8.20;1.38;;;;;;;;;;5029218;28;20129;-66
2022/07/01 11:14:38;;;;;;;8.35;1.60;;;;;;;;;;5025142;28;20045;-67
2022/07/01 11:17:05;;;;;;;10.43;1.80;;;;;;;;;;5024540;28;20049;-67
2022/07/01 11:19:31;;;;;;;11.25;1.63;;;;;;;;;;5028062;28;20124;-68
2022/07/01 11:21:57;;;;;;;10.23;1.88;;;;;;;;;;5027756;28;20037;-69
2022/07/01 11:24:23;;;;;;;8.95;1.65;;;;;;;;;;5027639;28;20057;-67
2022/07/01 11:26:50;;;;;;;10.63;1.90;;;;;;;;;;5024304;28;20483;-71
2022/07/01 11:29:28;;;;;;;7.10;1.42;;;;;;;;;;5025768;28;20632;-69
2022/07/01 11:31:54;;;;;;;12.75;1.55;;;;;;;;;;5025346;28;20346;-67
2022/07/01 11:34:20;;;;;;;7.57;1.60;;;;;;;;;;5024232;28;20041;-70
2022/07/01 11:39:34;;;;;;;10.75;1.67;;;;;;;;;;5027040;28;20049;-67
2022/07/01 11:42:06;;;;;;;10.00;1.73;;;;;;;;;;5027885;28;20487;-68
2022/07/01 11:44:36;;;;;;;4.80;1.35;;;;;;;;;;5030112;28;20329;-68
2022/07/01 11:47:04;;;;;;;10.32;1.83;;;;;;;;;;5025044;28;20050;-70
2022/07/01 11:49:29;;;;;;;9.27;1.80;;;;;;;;;;5029098;28;20084;-67
2022/07/01 11:52:07;;;;;;;7.22;2.00;;;;;;;;;;5027716;28;20791;-67
2022/07/01 11:54:38;;;;;;;10.40;2.30;;;;;;;;;;5026006;28;20057;-67
2022/07/01 11:57:11;;;;;;;10.25;1.90;;;;;;;;;;5026674;28;20176;-67
2022/07/01 11:59:38;;;;;;;9.85;1.90;;;;;;;;;;5027232;28;20056;-70
2022/07/01 12:02:05;;;;;;;7.28;1.80;;;;;;;;;;5024293;28;20038;-67
2022/07/01 12:04:31;;;;;;;10.32;1.60;;;;;;;;;;5028243;28;20042;-67
2022/07/01 12:06:58;;;;;;;6.95;1.52;;;;;;;;;;5026142;28;20037;-68
2022/07/01 12:09:25;;;;;;;11.57;1.98;;;;;;;;;;5024387;28;20049;-67
2022/07/01 12:11:52;;;;;;;10.20;2.20;;;;;;;;;;5026432;28;20292;-68
2022/07/01 12:14:35;;;;;;;17.50;2.55;;;;;;;;;;5024649;28;20045;-66
2022/07/01 12:17:08;;;;;;;9.52;1.90;;;;;;;;;;5023932;28;20045;-70
2022/07/01 12:19:40;;;;;;;15.57;3.00;;;;;;;;;;5022739;28;20053;-69
2022/07/01 12:22:12;;;;;;;12.25;2.92;;;;;;;;;;5026544;28;20322;-69
2022/07/01 12:24:38;;;;;;;17.00;3.58;;;;;;;;;;5022740;28;20052;-68
2022/07/01 12:27:06;;;;;;;29.30;12.15;;;;;;;;;;5026609;28;20144;-68
2022/07/01 12:29:47;;;;;;;38.60;15.07;;;;;;;;;;5023625;28;20041;-68
2022/07/01 12:32:17;;;;;;;23.38;6.00;;;;;;;;;;5024568;28;20037;-71
2022/07/01 12:34:59;;;;;;;23.25;8.73;;;;;;;;;;5031316;28;20041;-69
2022/07/01 12:37:32;;;;;;;24.35;7.82;;;;;;;;;;5022929;28;20049;-70
2022/07/01 12:40:01;;;;;;;13.80;3.13;;;;;;;;;;5025682;28;20129;-67
2022/07/01 12:42:38;;;;;;;12.07;2.50;;;;;;;;;;5023115;28;20546;-68
2022/07/01 12:45:06;;;;;;;15.65;2.65;;;;;;;;;;5023281;28;20411;-67
2022/07/01 12:47:34;;;;;;;13.82;3.28;;;;;;;;;;5031333;28;20042;-69
2022/07/01 12:50:16;;;;;;;13.80;2.75;;;;;;;;;;5026694;28;20483;-69
2022/07/01 12:52:55;;;;;;;12.38;2.72;;;;;;;;;;5021509;28;20080;-68
2022/07/01 12:55:21;;;;;;;13.32;2.55;;;;;;;;;;5022923;28;20065;-69
2022/07/01 12:57:53;;;;;;;13.85;2.60;;;;;;;;;;5024294;28;20132;-68
2022/07/01 13:00:20;;;;;;;8.75;2.00;;;;;;;;;;5027831;28;20045;-67
2022/07/01 13:02:46;;;;;;;13.35;2.35;;;;;;;;;;5028697;28;20124;-67
2022/07/01 13:05:13;;;;;;;9.38;2.30;;;;;;;;;;5028417;28;20391;-68
2022/07/01 13:07:39;;;;;;;11.52;2.47;;;;;;;;;;5028796;28;20041;-68
2022/07/01 13:10:06;;;;;;;11.88;2.55;;;;;;;;;;5027670;28;20037;-69
2022/07/01 13:12:32;;;;;;;12.05;2.45;;;;;;;;;;5026835;28;20503;-69
2022/07/01 13:14:59;;;;;;;8.40;2.30;;;;;;;;;;5030662;28;20320;-70
2022/07/01 13:17:25;;;;;;;14.75;2.65;;;;;;;;;;5029752;28;20053;-70
2022/07/01 13:19:51;;;;;;;12.57;2.58;;;;;;;;;;5027752;28;20120;-71
2022/07/01 13:22:18;;;;;;;12.48;2.45;;;;;;;;;;5027929;28;20033;-68
2022/07/01 13:24:43;;;;;;;10.55;2.35;;;;;;;;;;5029459;28;20392;-67
2022/07/01 13:27:10;;;;;;;13.82;2.70;;;;;;;;;;5029557;28;20055;-71
2022/07/01 13:29:36;;;;;;;10.90;2.28;;;;;;;;;;5028467;28;20088;-68
2022/07/01 13:32:02;;;;;;;15.90;2.55;;;;;;;;;;5022117;28;20467;-69
2022/07/01 13:34:28;;;;;;;11.98;2.53;;;;;;;;;;5028894;28;20133;-70
2022/07/01 13:36:54;;;;;;;12.20;2.83;;;;;;;;;;5029909;28;20386;-68
2022/07/01 13:39:20;;;;;;;14.80;2.95;;;;;;;;;;5030263;28;20041;-68
2022/07/01 13:41:46;;;;;;;12.10;2.70;;;;;;;;;;5028797;28;20179;-68
2022/07/01 13:44:12;;;;;;;9.52;2.88;;;;;;;;;;5029879;28;20065;-69
2022/07/01 13:46:38;;;;;;;13.07;2.78;;;;;;;;;;5028618;28;20045;-67
2022/07/01 13:49:04;;;;;;;9.40;2.40;;;;;;;;;;5024920;28;20049;-69
2022/07/01 13:51:30;;;;;;;9.73;2.35;;;;;;;;;;5027581;28;20046;-66
2022/07/01 13:53:59;;;;;;;12.10;2.90;;;;;;;;;;5030275;28;20103;-68
2022/07/01 13:56:25;;;;;;;11.70;2.53;;;;;;;;;;5029877;28;20053;-70
2022/07/01 13:58:53;;;;;;;11.35;2.45;;;;;;;;;;5027861;28;20042;-69
2022/07/01 14:01:19;;;;;;;13.32;2.92;;;;;;;;;;5030529;28;20037;-75
2022/07/01 14:03:46;;;;;;;8.13;2.17;;;;;;;;;;5028352;28;20384;-73
2022/07/01 14:06:12;;;;;;;8.43;2.40;;;;;;;;;;5028794;28;20206;-71
2022/07/01 14:08:38;;;;;;;10.93;2.50;;;;;;;;;;5027981;28;20044;-72
2022/07/01 14:11:04;;;;;;;12.20;3.33;;;;;;;;;;5026718;28;20038;-72
2022/07/01 14:13:30;;;;;;;8.38;2.45;;;;;;;;;;5027840;28;20057;-73
2022/07/01 14:15:56;;;;;;;13.20;2.97;;;;;;;;;;5021628;28;20137;-75
2022/07/01 14:18:22;;;;;;;10.20;2.40;;;;;;;;;;5028416;28;20057;-75
2022/07/01 14:20:48;;;;;;;11.65;2.42;;;;;;;;;;5027386;28;20052;-74
2022/07/01 14:23:14;;;;;;;13.25;2.55;;;;;;;;;;5029029;28;20037;-74
2022/07/01 14:25:41;;;;;;;11.48;2.95;;;;;;;;;;5026193;28;20046;-73
2022/07/01 14:28:07;;;;;;;11.18;2.88;;;;;;;;;;5027866;28;20074;-74
2022/07/01 14:30:33;;;;;;;14.93;2.70;;;;;;;;;;5028884;28;20466;-73
2022/07/01 14:33:02;;;;;;;9.10;2.75;;;;;;;;;;5028398;28;20046;-76
2022/07/01 14:35:28;;;;;;;12.02;2.58;;;;;;;;;;5029965;28;20098;-74
2022/07/01 14:37:54;;;;;;;10.63;2.38;;;;;;;;;;5028378;28;20049;-74
2022/07/01 14:40:20;;;;;;;12.20;2.45;;;;;;;;;;5030246;28;20041;-74
2022/07/01 14:42:46;;;;;;;14.52;2.75;;;;;;;;;;5029257;28;20048;-73
2022/07/01 14:45:13;;;;;;;10.50;2.75;;;;;;;;;;5029944;28;20091;-75
2022/07/01 14:47:40;;;;;;;14.05;2.92;;;;;;;;;;5029777;28;20447;-74
2022/07/01 14:50:07;;;;;;;10.38;2.35;;;;;;;;;;5029797;28;20065;-74
2022/07/01 14:52:33;;;;;;;13.82;2.60;;;;;;;;;;5030715;28;20403;-75
2022/07/01 14:54:59;;;;;;;9.45;2.42;;;;;;;;;;5030985;28;20042;-74
2022/07/01 14:57:25;;;;;;;12.88;2.80;;;;;;;;;;5020512;28;20049;-75